sensor_id;sensor_type;location;lat;lon;timestamp;P1;durP1;ratioP1;P2;durP2;ratioP2
27187;SDS011;14708;50.872;5.306;2023-02-21T00:04:01;2.90;;;2.60;;
27187;SDS011;14708;50.872;5.306;2023-02-21T00:06:46;4.00;;;3.22;;
27187;SDS011;14708;50.872;5.306;2023-02-21T00:09:30;3.72;;;2.72;;
27187;SDS011;14708;50.872;5.306;2023-02-21T00:12:14;2.80;;;2.40;;
27187;SDS011;14708;50.872;5.306;2023-02-21T00:18:21;2.85;;;2.53;;
27187;SDS011;14708;50.872;5.306;2023-02-21T00:21:05;4.50;;;2.58;;
27187;SDS011;14708;50.872;5.306;2023-02-21T00:23:49;4.40;;;2.80;;
27187;SDS011;14708;50.872;5.306;2023-02-21T00:29:42;6.28;;;3.10;;
27187;SDS011;14708;50.872;5.306;2023-02-21T00:32:26;3.95;;;2.97;;
27187;SDS011;14708;50.872;5.306;2023-02-21T00:35:11;3.67;;;2.80;;
27187;SDS011;14708;50.872;5.306;2023-02-21T00:37:55;4.00;;;2.90;;
27187;SDS011;14708;50.872;5.306;2023-02-21T00:40:39;3.20;;;2.58;;
27187;SDS011;14708;50.872;5.306;2023-02-21T00:43:28;3.15;;;2.67;;
27187;SDS011;14708;50.872;5.306;2023-02-21T00:52:38;3.63;;;3.25;;
27187;SDS011;14708;50.872;5.306;2023-02-21T00:55:22;4.05;;;3.10;;
27187;SDS011;14708;50.872;5.306;2023-02-21T00:58:07;3.65;;;3.22;;
27187;SDS011;14708;50.872;5.306;2023-02-21T01:00:51;3.63;;;3.13;;
27187;SDS011;14708;50.872;5.306;2023-02-21T01:06:58;3.22;;;2.92;;
27187;SDS011;14708;50.872;5.306;2023-02-21T01:09:42;2.92;;;2.63;;
27187;SDS011;14708;50.872;5.306;2023-02-21T01:12:26;3.92;;;3.00;;
27187;SDS011;14708;50.872;5.306;2023-02-21T01:15:11;3.42;;;2.88;;
27187;SDS011;14708;50.872;5.306;2023-02-21T01:17:58;3.20;;;2.88;;
27187;SDS011;14708;50.872;5.306;2023-02-21T01:20:42;3.03;;;2.50;;
27187;SDS011;14708;50.872;5.306;2023-02-21T01:23:26;4.78;;;3.05;;
27187;SDS011;14708;50.872;5.306;2023-02-21T01:26:11;5.03;;;3.65;;
27187;SDS011;14708;50.872;5.306;2023-02-21T01:43:07;4.03;;;3.10;;
27187;SDS011;14708;50.872;5.306;2023-02-21T01:46:03;3.25;;;2.72;;
27187;SDS011;14708;50.872;5.306;2023-02-21T01:48:48;4.22;;;2.88;;
27187;SDS011;14708;50.872;5.306;2023-02-21T02:05:15;4.90;;;3.25;;
27187;SDS011;14708;50.872;5.306;2023-02-21T02:08:00;4.10;;;3.13;;
27187;SDS011;14708;50.872;5.306;2023-02-21T02:10:45;3.20;;;2.90;;
27187;SDS011;14708;50.872;5.306;2023-02-21T02:50:34;3.30;;;2.85;;
27187;SDS011;14708;50.872;5.306;2023-02-21T02:53:02;4.53;;;3.47;;
27187;SDS011;14708;50.872;5.306;2023-02-21T02:57:56;3.53;;;3.23;;
27187;SDS011;14708;50.872;5.306;2023-02-21T03:00:23;3.47;;;2.85;;
27187;SDS011;14708;50.872;5.306;2023-02-21T03:02:53;3.50;;;2.78;;
27187;SDS011;14708;50.872;5.306;2023-02-21T03:18:07;3.28;;;2.97;;
27187;SDS011;14708;50.872;5.306;2023-02-21T03:20:40;3.47;;;3.13;;
27187;SDS011;14708;50.872;5.306;2023-02-21T03:23:09;3.05;;;2.75;;
27187;SDS011;14708;50.872;5.306;2023-02-21T03:25:38;3.22;;;2.90;;
27187;SDS011;14708;50.872;5.306;2023-02-21T03:28:04;3.83;;;3.08;;
27187;SDS011;14708;50.872;5.306;2023-02-21T03:30:30;3.88;;;2.97;;
27187;SDS011;14708;50.872;5.306;2023-02-21T03:32:56;4.00;;;3.25;;
27187;SDS011;14708;50.872;5.306;2023-02-21T03:35:22;3.38;;;3.08;;
27187;SDS011;14708;50.872;5.306;2023-02-21T03:37:53;3.35;;;3.03;;
27187;SDS011;14708;50.872;5.306;2023-02-21T03:42:48;3.47;;;2.90;;
27187;SDS011;14708;50.872;5.306;2023-02-21T03:45:14;3.97;;;3.35;;
27187;SDS011;14708;50.872;5.306;2023-02-21T03:47:40;3.47;;;3.17;;
27187;SDS011;14708;50.872;5.306;2023-02-21T03:50:05;4.20;;;3.33;;
27187;SDS011;14708;50.872;5.306;2023-02-21T03:52:31;3.70;;;3.35;;
27187;SDS011;14708;50.872;5.306;2023-02-21T03:54:57;4.22;;;3.42;;
27187;SDS011;14708;50.872;5.306;2023-02-21T03:57:23;4.13;;;3.42;;
27187;SDS011;14708;50.872;5.306;2023-02-21T03:59:48;3.72;;;3.30;;
27187;SDS011;14708;50.872;5.306;2023-02-21T04:02:14;3.63;;;3.10;;
27187;SDS011;14708;50.872;5.306;2023-02-21T04:04:40;4.13;;;3.22;;
27187;SDS011;14708;50.872;5.306;2023-02-21T04:07:23;4.13;;;3.20;;
27187;SDS011;14708;50.872;5.306;2023-02-21T04:09:49;3.33;;;3.03;;
27187;SDS011;14708;50.872;5.306;2023-02-21T04:12:15;3.55;;;3.15;;
27187;SDS011;14708;50.872;5.306;2023-02-21T04:14:40;3.38;;;3.00;;
27187;SDS011;14708;50.872;5.306;2023-02-21T04:17:06;3.78;;;3.33;;
27187;SDS011;14708;50.872;5.306;2023-02-21T04:22:16;3.30;;;2.85;;
27187;SDS011;14708;50.872;5.306;2023-02-21T04:24:42;3.40;;;2.88;;
27187;SDS011;14708;50.872;5.306;2023-02-21T04:27:08;3.88;;;3.28;;
27187;SDS011;14708;50.872;5.306;2023-02-21T04:29:33;3.28;;;2.97;;
27187;SDS011;14708;50.872;5.306;2023-02-21T04:31:59;3.40;;;3.10;;
27187;SDS011;14708;50.872;5.306;2023-02-21T04:34:26;3.72;;;3.20;;
27187;SDS011;14708;50.872;5.306;2023-02-21T04:36:52;4.10;;;3.10;;
27187;SDS011;14708;50.872;5.306;2023-02-21T04:39:18;3.40;;;2.80;;
27187;SDS011;14708;50.872;5.306;2023-02-21T04:41:43;3.55;;;3.25;;
27187;SDS011;14708;50.872;5.306;2023-02-21T04:44:09;3.95;;;3.30;;
27187;SDS011;14708;50.872;5.306;2023-02-21T04:46:35;3.35;;;3.05;;
27187;SDS011;14708;50.872;5.306;2023-02-21T04:49:01;3.85;;;2.97;;
27187;SDS011;14708;50.872;5.306;2023-02-21T04:51:27;3.47;;;3.17;;
27187;SDS011;14708;50.872;5.306;2023-02-21T04:53:53;3.47;;;3.10;;
27187;SDS011;14708;50.872;5.306;2023-02-21T04:56:20;4.97;;;3.78;;
27187;SDS011;14708;50.872;5.306;2023-02-21T04:58:47;3.70;;;3.20;;
27187;SDS011;14708;50.872;5.306;2023-02-21T05:01:14;5.65;;;3.50;;
27187;SDS011;14708;50.872;5.306;2023-02-21T05:03:41;3.95;;;3.47;;
27187;SDS011;14708;50.872;5.306;2023-02-21T05:06:06;3.65;;;3.15;;
27187;SDS011;14708;50.872;5.306;2023-02-21T05:08:32;3.85;;;3.38;;
27187;SDS011;14708;50.872;5.306;2023-02-21T05:31:10;4.40;;;3.67;;
27187;SDS011;14708;50.872;5.306;2023-02-21T05:33:35;4.85;;;3.65;;
27187;SDS011;14708;50.872;5.306;2023-02-21T05:36:01;6.82;;;3.55;;
27187;SDS011;14708;50.872;5.306;2023-02-21T05:38:27;4.82;;;3.75;;
27187;SDS011;14708;50.872;5.306;2023-02-21T05:40:57;3.95;;;3.50;;
27187;SDS011;14708;50.872;5.306;2023-02-21T05:43:26;7.25;;;3.65;;
27187;SDS011;14708;50.872;5.306;2023-02-21T05:45:51;4.10;;;3.58;;
27187;SDS011;14708;50.872;5.306;2023-02-21T05:48:17;4.05;;;3.50;;
27187;SDS011;14708;50.872;5.306;2023-02-21T05:50:43;4.07;;;3.55;;
27187;SDS011;14708;50.872;5.306;2023-02-21T05:53:09;6.57;;;3.75;;
27187;SDS011;14708;50.872;5.306;2023-02-21T05:55:35;4.30;;;3.70;;
27187;SDS011;14708;50.872;5.306;2023-02-21T05:58:01;4.57;;;3.70;;
27187;SDS011;14708;50.872;5.306;2023-02-21T06:00:27;5.38;;;3.67;;
27187;SDS011;14708;50.872;5.306;2023-02-21T06:02:54;6.18;;;3.88;;
27187;SDS011;14708;50.872;5.306;2023-02-21T06:05:20;6.55;;;3.97;;
27187;SDS011;14708;50.872;5.306;2023-02-21T06:07:47;5.05;;;3.90;;
27187;SDS011;14708;50.872;5.306;2023-02-21T06:10:13;5.25;;;3.72;;
27187;SDS011;14708;50.872;5.306;2023-02-21T06:12:39;4.35;;;3.47;;
27187;SDS011;14708;50.872;5.306;2023-02-21T06:15:05;4.40;;;3.67;;
27187;SDS011;14708;50.872;5.306;2023-02-21T06:17:32;5.38;;;4.03;;
27187;SDS011;14708;50.872;5.306;2023-02-21T06:20:13;4.13;;;3.60;;
27187;SDS011;14708;50.872;5.306;2023-02-21T06:22:42;4.07;;;3.28;;
27187;SDS011;14708;50.872;5.306;2023-02-21T06:25:07;4.18;;;3.55;;
27187;SDS011;14708;50.872;5.306;2023-02-21T06:27:34;3.67;;;3.30;;
27187;SDS011;14708;50.872;5.306;2023-02-21T06:29:59;4.57;;;3.70;;
27187;SDS011;14708;50.872;5.306;2023-02-21T06:35:47;4.43;;;3.75;;
27187;SDS011;14708;50.872;5.306;2023-02-21T06:38:13;4.43;;;3.80;;
27187;SDS011;14708;50.872;5.306;2023-02-21T06:40:38;4.43;;;3.55;;
27187;SDS011;14708;50.872;5.306;2023-02-21T06:43:04;4.55;;;3.63;;
27187;SDS011;14708;50.872;5.306;2023-02-21T06:45:30;4.68;;;3.78;;
27187;SDS011;14708;50.872;5.306;2023-02-21T06:47:55;6.20;;;3.97;;
27187;SDS011;14708;50.872;5.306;2023-02-21T06:50:21;4.75;;;3.75;;
27187;SDS011;14708;50.872;5.306;2023-02-21T06:56:11;4.40;;;3.72;;
27187;SDS011;14708;50.872;5.306;2023-02-21T06:58:37;4.40;;;3.50;;
27187;SDS011;14708;50.872;5.306;2023-02-21T07:01:03;4.30;;;3.72;;
27187;SDS011;14708;50.872;5.306;2023-02-21T07:03:28;4.00;;;3.58;;
27187;SDS011;14708;50.872;5.306;2023-02-21T07:05:57;3.80;;;3.37;;
27187;SDS011;14708;50.872;5.306;2023-02-21T07:08:22;4.13;;;3.72;;
27187;SDS011;14708;50.872;5.306;2023-02-21T07:10:50;3.85;;;3.42;;
27187;SDS011;14708;50.872;5.306;2023-02-21T07:13:15;5.25;;;3.38;;
27187;SDS011;14708;50.872;5.306;2023-02-21T07:15:41;3.13;;;2.83;;
27187;SDS011;14708;50.872;5.306;2023-02-21T07:18:07;3.58;;;3.20;;
27187;SDS011;14708;50.872;5.306;2023-02-21T07:20:32;4.22;;;3.03;;
27187;SDS011;14708;50.872;5.306;2023-02-21T07:22:59;3.70;;;3.15;;
27187;SDS011;14708;50.872;5.306;2023-02-21T07:25:24;3.90;;;3.17;;
27187;SDS011;14708;50.872;5.306;2023-02-21T07:28:09;3.83;;;3.03;;
27187;SDS011;14708;50.872;5.306;2023-02-21T07:30:35;3.78;;;3.35;;
27187;SDS011;14708;50.872;5.306;2023-02-21T07:33:00;5.45;;;2.92;;
27187;SDS011;14708;50.872;5.306;2023-02-21T07:35:26;4.68;;;3.17;;
27187;SDS011;14708;50.872;5.306;2023-02-21T07:37:52;3.92;;;3.33;;
27187;SDS011;14708;50.872;5.306;2023-02-21T07:40:17;5.50;;;3.72;;
27187;SDS011;14708;50.872;5.306;2023-02-21T07:42:43;9.20;;;4.13;;
27187;SDS011;14708;50.872;5.306;2023-02-21T07:45:09;6.53;;;3.92;;
27187;SDS011;14708;50.872;5.306;2023-02-21T07:47:36;6.88;;;4.53;;
27187;SDS011;14708;50.872;5.306;2023-02-21T07:50:02;9.25;;;3.83;;
27187;SDS011;14708;50.872;5.306;2023-02-21T07:52:28;7.95;;;4.30;;
27187;SDS011;14708;50.872;5.306;2023-02-21T07:54:53;8.63;;;4.30;;
27187;SDS011;14708;50.872;5.306;2023-02-21T08:00:41;7.85;;;4.38;;
27187;SDS011;14708;50.872;5.306;2023-02-21T08:03:07;7.80;;;4.75;;
27187;SDS011;14708;50.872;5.306;2023-02-21T08:05:36;10.73;;;5.00;;
27187;SDS011;14708;50.872;5.306;2023-02-21T08:08:01;12.25;;;5.00;;
27187;SDS011;14708;50.872;5.306;2023-02-21T08:10:27;8.93;;;4.90;;
27187;SDS011;14708;50.872;5.306;2023-02-21T08:16:14;9.63;;;4.80;;
27187;SDS011;14708;50.872;5.306;2023-02-21T08:18:40;9.45;;;4.10;;
27187;SDS011;14708;50.872;5.306;2023-02-21T08:21:07;9.68;;;4.55;;
27187;SDS011;14708;50.872;5.306;2023-02-21T08:23:34;9.20;;;4.53;;
27187;SDS011;14708;50.872;5.306;2023-02-21T08:26:01;11.27;;;4.50;;
27187;SDS011;14708;50.872;5.306;2023-02-21T08:28:47;11.38;;;5.05;;
27187;SDS011;14708;50.872;5.306;2023-02-21T08:31:12;7.95;;;4.32;;
27187;SDS011;14708;50.872;5.306;2023-02-21T08:33:38;14.20;;;5.13;;
27187;SDS011;14708;50.872;5.306;2023-02-21T08:36:04;10.10;;;4.65;;
27187;SDS011;14708;50.872;5.306;2023-02-21T08:38:30;13.05;;;5.35;;
27187;SDS011;14708;50.872;5.306;2023-02-21T08:40:55;8.98;;;4.40;;
27187;SDS011;14708;50.872;5.306;2023-02-21T08:43:22;9.05;;;4.53;;
27187;SDS011;14708;50.872;5.306;2023-02-21T08:45:48;12.38;;;4.97;;
27187;SDS011;14708;50.872;5.306;2023-02-21T08:48:15;6.88;;;4.22;;
27187;SDS011;14708;50.872;5.306;2023-02-21T08:50:40;7.20;;;3.95;;
27187;SDS011;14708;50.872;5.306;2023-02-21T08:53:06;6.93;;;3.90;;
27187;SDS011;14708;50.872;5.306;2023-02-21T08:55:32;7.22;;;4.18;;
27187;SDS011;14708;50.872;5.306;2023-02-21T08:57:57;7.82;;;4.20;;
27187;SDS011;14708;50.872;5.306;2023-02-21T09:00:24;8.98;;;3.75;;
27187;SDS011;14708;50.872;5.306;2023-02-21T09:03:07;8.25;;;3.78;;
27187;SDS011;14708;50.872;5.306;2023-02-21T09:05:33;8.23;;;4.43;;
27187;SDS011;14708;50.872;5.306;2023-02-21T09:07:59;6.93;;;3.88;;
27187;SDS011;14708;50.872;5.306;2023-02-21T09:10:26;7.03;;;4.35;;
27187;SDS011;14708;50.872;5.306;2023-02-21T09:12:53;6.55;;;3.78;;
27187;SDS011;14708;50.872;5.306;2023-02-21T09:15:19;9.07;;;4.32;;
27187;SDS011;14708;50.872;5.306;2023-02-21T09:17:45;6.53;;;4.05;;
27187;SDS011;14708;50.872;5.306;2023-02-21T09:20:13;8.98;;;4.13;;
27187;SDS011;14708;50.872;5.306;2023-02-21T09:29:31;7.40;;;3.30;;
27187;SDS011;14708;50.872;5.306;2023-02-21T09:31:59;9.10;;;4.43;;
27187;SDS011;14708;50.872;5.306;2023-02-21T09:34:25;6.10;;;3.95;;
27187;SDS011;14708;50.872;5.306;2023-02-21T09:36:51;8.40;;;4.03;;
27187;SDS011;14708;50.872;5.306;2023-02-21T09:39:19;8.38;;;4.10;;
27187;SDS011;14708;50.872;5.306;2023-02-21T09:48:32;6.88;;;3.92;;
27187;SDS011;14708;50.872;5.306;2023-02-21T09:51:01;8.63;;;3.50;;
27187;SDS011;14708;50.872;5.306;2023-02-21T09:53:32;8.73;;;4.13;;
27187;SDS011;14708;50.872;5.306;2023-02-21T09:58:38;6.65;;;3.28;;
27187;SDS011;14708;50.872;5.306;2023-02-21T10:01:12;6.93;;;3.33;;
27187;SDS011;14708;50.872;5.306;2023-02-21T10:09:59;5.85;;;3.65;;
27187;SDS011;14708;50.872;5.306;2023-02-21T10:16:07;6.32;;;3.92;;
27187;SDS011;14708;50.872;5.306;2023-02-21T10:18:40;7.32;;;3.58;;
27187;SDS011;14708;50.872;5.306;2023-02-21T10:21:24;7.63;;;3.72;;
27187;SDS011;14708;50.872;5.306;2023-02-21T10:23:53;9.23;;;3.55;;
27187;SDS011;14708;50.872;5.306;2023-02-21T10:29:43;8.02;;;4.10;;
27187;SDS011;14708;50.872;5.306;2023-02-21T10:32:10;6.63;;;3.53;;
27187;SDS011;14708;50.872;5.306;2023-02-21T10:34:35;7.05;;;4.25;;
27187;SDS011;14708;50.872;5.306;2023-02-21T10:43:46;6.10;;;3.65;;
27187;SDS011;14708;50.872;5.306;2023-02-21T10:46:24;6.80;;;3.88;;
27187;SDS011;14708;50.872;5.306;2023-02-21T10:48:58;6.18;;;3.80;;
27187;SDS011;14708;50.872;5.306;2023-02-21T10:51:43;6.18;;;3.38;;
27187;SDS011;14708;50.872;5.306;2023-02-21T10:54:18;5.40;;;3.35;;
27187;SDS011;14708;50.872;5.306;2023-02-21T10:56:47;6.03;;;3.30;;
27187;SDS011;14708;50.872;5.306;2023-02-21T10:59:40;5.80;;;3.67;;
27187;SDS011;14708;50.872;5.306;2023-02-21T11:05:09;5.47;;;2.95;;
27187;SDS011;14708;50.872;5.306;2023-02-21T11:07:56;6.28;;;3.08;;
27187;SDS011;14708;50.872;5.306;2023-02-21T11:16:42;6.95;;;3.70;;
27187;SDS011;14708;50.872;5.306;2023-02-21T11:19:09;7.03;;;3.85;;
27187;SDS011;14708;50.872;5.306;2023-02-21T11:21:37;7.30;;;3.83;;
27187;SDS011;14708;50.872;5.306;2023-02-21T11:24:04;6.53;;;3.42;;
27187;SDS011;14708;50.872;5.306;2023-02-21T11:26:36;4.75;;;3.08;;
27187;SDS011;14708;50.872;5.306;2023-02-21T11:29:10;9.20;;;3.70;;
27187;SDS011;14708;50.872;5.306;2023-02-21T11:31:38;8.48;;;3.53;;
27187;SDS011;14708;50.872;5.306;2023-02-21T11:34:08;5.68;;;3.15;;
27187;SDS011;14708;50.872;5.306;2023-02-21T11:36:40;7.00;;;3.75;;
27187;SDS011;14708;50.872;5.306;2023-02-21T11:51:03;5.95;;;2.90;;
27187;SDS011;14708;50.872;5.306;2023-02-21T11:53:34;6.68;;;3.47;;
27187;SDS011;14708;50.872;5.306;2023-02-21T12:01:34;8.27;;;3.92;;
27187;SDS011;14708;50.872;5.306;2023-02-21T12:22:37;15.65;;;3.78;;
27187;SDS011;14708;50.872;5.306;2023-02-21T12:27:53;6.95;;;3.70;;
27187;SDS011;14708;50.872;5.306;2023-02-21T12:51:48;7.95;;;3.70;;
27187;SDS011;14708;50.872;5.306;2023-02-21T12:54:35;6.28;;;3.75;;
27187;SDS011;14708;50.872;5.306;2023-02-21T12:57:10;8.85;;;4.10;;
27187;SDS011;14708;50.872;5.306;2023-02-21T13:05:59;7.28;;;3.83;;
27187;SDS011;14708;50.872;5.306;2023-02-21T13:13:32;7.15;;;3.58;;
27187;SDS011;14708;50.872;5.306;2023-02-21T13:16:09;9.30;;;3.65;;
27187;SDS011;14708;50.872;5.306;2023-02-21T13:25:05;7.80;;;4.00;;
27187;SDS011;14708;50.872;5.306;2023-02-21T13:27:54;8.80;;;4.05;;
27187;SDS011;14708;50.872;5.306;2023-02-21T13:33:06;5.97;;;3.42;;
27187;SDS011;14708;50.872;5.306;2023-02-21T13:36:14;5.28;;;3.28;;
27187;SDS011;14708;50.872;5.306;2023-02-21T13:38:44;7.60;;;3.42;;
27187;SDS011;14708;50.872;5.306;2023-02-21T13:41:14;5.55;;;3.33;;
27187;SDS011;14708;50.872;5.306;2023-02-21T13:43:49;8.80;;;3.75;;
27187;SDS011;14708;50.872;5.306;2023-02-21T13:52:25;7.72;;;4.38;;
27187;SDS011;14708;50.872;5.306;2023-02-21T13:57:47;6.95;;;3.35;;
27187;SDS011;14708;50.872;5.306;2023-02-21T14:02:57;5.95;;;3.80;;
27187;SDS011;14708;50.872;5.306;2023-02-21T14:08:40;5.75;;;3.60;;
27187;SDS011;14708;50.872;5.306;2023-02-21T14:11:24;5.38;;;3.30;;
27187;SDS011;14708;50.872;5.306;2023-02-21T14:14:27;7.83;;;3.97;;
27187;SDS011;14708;50.872;5.306;2023-02-21T14:17:00;6.63;;;3.35;;
27187;SDS011;14708;50.872;5.306;2023-02-21T14:27:49;7.18;;;4.00;;
27187;SDS011;14708;50.872;5.306;2023-02-21T14:30:47;7.22;;;3.17;;
27187;SDS011;14708;50.872;5.306;2023-02-21T14:33:16;5.28;;;3.15;;
27187;SDS011;14708;50.872;5.306;2023-02-21T14:36:07;5.45;;;3.25;;
27187;SDS011;14708;50.872;5.306;2023-02-21T14:38:44;6.68;;;3.50;;
27187;SDS011;14708;50.872;5.306;2023-02-21T14:46:59;7.32;;;3.85;;
27187;SDS011;14708;50.872;5.306;2023-02-21T14:55:33;6.95;;;3.75;;
27187;SDS011;14708;50.872;5.306;2023-02-21T15:01:06;7.70;;;4.60;;
27187;SDS011;14708;50.872;5.306;2023-02-21T15:03:44;7.53;;;4.40;;
27187;SDS011;14708;50.872;5.306;2023-02-21T15:06:33;7.25;;;4.53;;
27187;SDS011;14708;50.872;5.306;2023-02-21T15:09:10;8.75;;;3.70;;
27187;SDS011;14708;50.872;5.306;2023-02-21T15:11:49;6.40;;;4.03;;
27187;SDS011;14708;50.872;5.306;2023-02-21T15:14:19;6.70;;;3.63;;
27187;SDS011;14708;50.872;5.306;2023-02-21T15:16:54;5.55;;;4.20;;
27187;SDS011;14708;50.872;5.306;2023-02-21T15:19:32;7.00;;;5.00;;
27187;SDS011;14708;50.872;5.306;2023-02-21T15:25:20;8.80;;;4.68;;
27187;SDS011;14708;50.872;5.306;2023-02-21T15:32:39;8.30;;;4.15;;
27187;SDS011;14708;50.872;5.306;2023-02-21T15:38:35;8.32;;;4.93;;
27187;SDS011;14708;50.872;5.306;2023-02-21T15:44:14;7.15;;;5.00;;
27187;SDS011;14708;50.872;5.306;2023-02-21T15:46:52;6.32;;;3.75;;
27187;SDS011;14708;50.872;5.306;2023-02-21T15:49:35;10.18;;;4.78;;
27187;SDS011;14708;50.872;5.306;2023-02-21T15:55:45;7.05;;;4.10;;
27187;SDS011;14708;50.872;5.306;2023-02-21T15:58:14;7.35;;;4.07;;
27187;SDS011;14708;50.872;5.306;2023-02-21T16:00:46;5.72;;;3.83;;
27187;SDS011;14708;50.872;5.306;2023-02-21T16:03:30;6.88;;;3.75;;
27187;SDS011;14708;50.872;5.306;2023-02-21T16:08:38;5.50;;;3.63;;
27187;SDS011;14708;50.872;5.306;2023-02-21T16:11:23;5.40;;;3.72;;
27187;SDS011;14708;50.872;5.306;2023-02-21T16:16:53;5.63;;;3.60;;
27187;SDS011;14708;50.872;5.306;2023-02-21T16:19:32;6.00;;;4.07;;
27187;SDS011;14708;50.872;5.306;2023-02-21T16:22:08;8.10;;;4.15;;
27187;SDS011;14708;50.872;5.306;2023-02-21T16:24:46;7.88;;;3.92;;
27187;SDS011;14708;50.872;5.306;2023-02-21T16:27:13;6.60;;;3.58;;
27187;SDS011;14708;50.872;5.306;2023-02-21T16:29:41;7.97;;;4.30;;
27187;SDS011;14708;50.872;5.306;2023-02-21T16:32:14;6.93;;;3.75;;
27187;SDS011;14708;50.872;5.306;2023-02-21T16:34:42;6.47;;;3.60;;
27187;SDS011;14708;50.872;5.306;2023-02-21T16:37:09;5.10;;;3.17;;
27187;SDS011;14708;50.872;5.306;2023-02-21T16:39:43;7.60;;;4.20;;
27187;SDS011;14708;50.872;5.306;2023-02-21T16:42:09;5.45;;;3.60;;
27187;SDS011;14708;50.872;5.306;2023-02-21T16:44:35;5.35;;;3.20;;
27187;SDS011;14708;50.872;5.306;2023-02-21T16:47:00;5.90;;;3.47;;
27187;SDS011;14708;50.872;5.306;2023-02-21T16:49:44;4.90;;;4.15;;
27187;SDS011;14708;50.872;5.306;2023-02-21T16:52:12;6.75;;;3.08;;
27187;SDS011;14708;50.872;5.306;2023-02-21T16:54:39;5.43;;;3.45;;
27187;SDS011;14708;50.872;5.306;2023-02-21T16:57:05;6.32;;;3.75;;
27187;SDS011;14708;50.872;5.306;2023-02-21T16:59:31;7.40;;;3.60;;
27187;SDS011;14708;50.872;5.306;2023-02-21T17:01:57;6.22;;;3.47;;
27187;SDS011;14708;50.872;5.306;2023-02-21T17:04:23;5.40;;;3.58;;
27187;SDS011;14708;50.872;5.306;2023-02-21T17:06:54;6.65;;;3.30;;
27187;SDS011;14708;50.872;5.306;2023-02-21T17:09:23;5.65;;;3.63;;
27187;SDS011;14708;50.872;5.306;2023-02-21T17:11:50;6.37;;;2.87;;
27187;SDS011;14708;50.872;5.306;2023-02-21T17:14:17;6.20;;;3.50;;
27187;SDS011;14708;50.872;5.306;2023-02-21T17:16:43;5.80;;;2.92;;
27187;SDS011;14708;50.872;5.306;2023-02-21T17:33:14;5.82;;;3.35;;
27187;SDS011;14708;50.872;5.306;2023-02-21T17:35:40;5.63;;;3.67;;
27187;SDS011;14708;50.872;5.306;2023-02-21T17:38:05;6.10;;;3.13;;
27187;SDS011;14708;50.872;5.306;2023-02-21T17:40:31;6.57;;;3.15;;
27187;SDS011;14708;50.872;5.306;2023-02-21T17:43:17;4.45;;;3.28;;
27187;SDS011;14708;50.872;5.306;2023-02-21T17:45:43;4.95;;;3.05;;
27187;SDS011;14708;50.872;5.306;2023-02-21T17:48:10;4.95;;;3.03;;
27187;SDS011;14708;50.872;5.306;2023-02-21T17:50:36;5.43;;;3.45;;
27187;SDS011;14708;50.872;5.306;2023-02-21T17:53:01;3.28;;;2.97;;
27187;SDS011;14708;50.872;5.306;2023-02-21T17:55:27;4.45;;;3.13;;
27187;SDS011;14708;50.872;5.306;2023-02-21T17:57:54;5.30;;;3.30;;
27187;SDS011;14708;50.872;5.306;2023-02-21T18:00:20;4.18;;;3.15;;
27187;SDS011;14708;50.872;5.306;2023-02-21T18:02:49;5.68;;;3.33;;
27187;SDS011;14708;50.872;5.306;2023-02-21T18:05:16;3.72;;;2.95;;
27187;SDS011;14708;50.872;5.306;2023-02-21T18:07:46;6.10;;;2.97;;
27187;SDS011;14708;50.872;5.306;2023-02-21T18:10:12;4.82;;;3.45;;
27187;SDS011;14708;50.872;5.306;2023-02-21T18:16:31;3.95;;;3.20;;
27187;SDS011;14708;50.872;5.306;2023-02-21T18:18:57;6.30;;;3.08;;
27187;SDS011;14708;50.872;5.306;2023-02-21T18:21:23;4.93;;;3.50;;
27187;SDS011;14708;50.872;5.306;2023-02-21T18:23:50;6.30;;;3.10;;
27187;SDS011;14708;50.872;5.306;2023-02-21T18:26:16;7.28;;;3.40;;
27187;SDS011;14708;50.872;5.306;2023-02-21T18:28:42;4.50;;;3.25;;
27187;SDS011;14708;50.872;5.306;2023-02-21T18:31:08;6.10;;;3.22;;
27187;SDS011;14708;50.872;5.306;2023-02-21T18:33:33;4.18;;;2.80;;
27187;SDS011;14708;50.872;5.306;2023-02-21T18:35:59;5.50;;;3.50;;
27187;SDS011;14708;50.872;5.306;2023-02-21T18:48:29;5.18;;;3.13;;
27187;SDS011;14708;50.872;5.306;2023-02-21T18:50:55;4.10;;;2.78;;
27187;SDS011;14708;50.872;5.306;2023-02-21T18:53:21;4.55;;;2.92;;
27187;SDS011;14708;50.872;5.306;2023-02-21T18:55:47;4.60;;;2.80;;
27187;SDS011;14708;50.872;5.306;2023-02-21T19:11:58;6.45;;;2.78;;
27187;SDS011;14708;50.872;5.306;2023-02-21T19:14:23;4.93;;;2.63;;
27187;SDS011;14708;50.872;5.306;2023-02-21T19:17:02;3.15;;;2.72;;
27187;SDS011;14708;50.872;5.306;2023-02-21T19:19:28;3.03;;;2.65;;
27187;SDS011;14708;50.872;5.306;2023-02-21T19:21:55;3.90;;;2.72;;
27187;SDS011;14708;50.872;5.306;2023-02-21T19:24:22;5.50;;;2.85;;
27187;SDS011;14708;50.872;5.306;2023-02-21T19:27:02;6.00;;;3.20;;
27187;SDS011;14708;50.872;5.306;2023-02-21T19:29:30;5.80;;;2.95;;
27187;SDS011;14708;50.872;5.306;2023-02-21T19:31:56;4.03;;;2.88;;
27187;SDS011;14708;50.872;5.306;2023-02-21T19:34:22;7.40;;;2.97;;
27187;SDS011;14708;50.872;5.306;2023-02-21T19:36:48;4.00;;;2.95;;
27187;SDS011;14708;50.872;5.306;2023-02-21T19:39:33;3.08;;;2.45;;
27187;SDS011;14708;50.872;5.306;2023-02-21T19:42:00;4.07;;;2.95;;
27187;SDS011;14708;50.872;5.306;2023-02-21T19:44:26;5.03;;;2.83;;
27187;SDS011;14708;50.872;5.306;2023-02-21T19:46:53;4.38;;;2.90;;
27187;SDS011;14708;50.872;5.306;2023-02-21T19:49:18;3.63;;;2.55;;
27187;SDS011;14708;50.872;5.306;2023-02-21T19:51:47;3.75;;;2.83;;
27187;SDS011;14708;50.872;5.306;2023-02-21T19:54:14;5.07;;;2.78;;
27187;SDS011;14708;50.872;5.306;2023-02-21T19:56:43;6.03;;;2.95;;
27187;SDS011;14708;50.872;5.306;2023-02-21T19:59:09;4.07;;;2.40;;
27187;SDS011;14708;50.872;5.306;2023-02-21T20:01:35;3.58;;;2.45;;
27187;SDS011;14708;50.872;5.306;2023-02-21T20:04:00;3.85;;;2.47;;
27187;SDS011;14708;50.872;5.306;2023-02-21T20:06:26;3.35;;;2.70;;
27187;SDS011;14708;50.872;5.306;2023-02-21T20:08:55;4.03;;;2.30;;
27187;SDS011;14708;50.872;5.306;2023-02-21T20:11:22;4.85;;;2.67;;
27187;SDS011;14708;50.872;5.306;2023-02-21T20:13:48;4.35;;;2.90;;
27187;SDS011;14708;50.872;5.306;2023-02-21T20:19:40;3.95;;;2.65;;
27187;SDS011;14708;50.872;5.306;2023-02-21T20:22:06;4.25;;;2.58;;
27187;SDS011;14708;50.872;5.306;2023-02-21T20:24:31;3.63;;;2.55;;
27187;SDS011;14708;50.872;5.306;2023-02-21T20:27:09;3.90;;;2.90;;
27187;SDS011;14708;50.872;5.306;2023-02-21T20:29:35;3.47;;;2.80;;
27187;SDS011;14708;50.872;5.306;2023-02-21T20:32:00;5.40;;;2.92;;
27187;SDS011;14708;50.872;5.306;2023-02-21T20:34:27;3.35;;;2.60;;
27187;SDS011;14708;50.872;5.306;2023-02-21T20:36:54;3.83;;;2.53;;
27187;SDS011;14708;50.872;5.306;2023-02-21T20:39:23;2.88;;;2.13;;
27187;SDS011;14708;50.872;5.306;2023-02-21T20:41:53;3.72;;;2.45;;
27187;SDS011;14708;50.872;5.306;2023-02-21T20:44:20;4.95;;;2.53;;
27187;SDS011;14708;50.872;5.306;2023-02-21T20:50:26;4.50;;;2.63;;
27187;SDS011;14708;50.872;5.306;2023-02-21T20:52:52;3.50;;;2.63;;
27187;SDS011;14708;50.872;5.306;2023-02-21T20:55:18;3.95;;;2.97;;
27187;SDS011;14708;50.872;5.306;2023-02-21T20:57:46;3.85;;;2.90;;
27187;SDS011;14708;50.872;5.306;2023-02-21T21:00:12;3.45;;;2.60;;
27187;SDS011;14708;50.872;5.306;2023-02-21T21:06:10;8.82;;;2.85;;
27187;SDS011;14708;50.872;5.306;2023-02-21T21:08:38;5.93;;;3.83;;
27187;SDS011;14708;50.872;5.306;2023-02-21T21:11:06;4.32;;;3.13;;
27187;SDS011;14708;50.872;5.306;2023-02-21T21:13:33;5.13;;;3.10;;
27187;SDS011;14708;50.872;5.306;2023-02-21T21:16:00;5.78;;;3.55;;
27187;SDS011;14708;50.872;5.306;2023-02-21T21:18:26;4.90;;;2.85;;
27187;SDS011;14708;50.872;5.306;2023-02-21T21:20:52;5.57;;;2.55;;
27187;SDS011;14708;50.872;5.306;2023-02-21T21:23:17;3.53;;;2.67;;
27187;SDS011;14708;50.872;5.306;2023-02-21T21:25:43;8.85;;;2.95;;